Bakersfield, CA (93303)

12:16 AM PST on December 06, 2016 (GMT -0800)
E. Belle Terrace | | Change Station

Elev 386 ft 35.35 °N, 118.97 °W | Updated 41 seconds ago

Haze
Haze
45.2 °F
Feels Like 45 °F
N
0.0
Wind Variable Wind from SW
Gusts 0.0 mph

Today
High -- | Low -- °F
--% Chance of Precip.
Yesterday
High -- | Low -- °F
Precip. -- in
Pressure 30.03 in
Visibility 5.0 miles
Clouds Overcast 3000 ft
Windchill 45 °F
Dew Point 40 °F
Humidity 83%
Rainfall 0.00 in
Snow Depth Not available.
6:51 AM 4:43 PM
Waxing Crescent, 39% visible
METAR KBFL 060754Z AUTO 00000KT 5SM HZ OVC030 08/03 A3003 RMK AO2 SLP169 T00780033 401560033
Pressure 30.03 in
Visibility 5.0 miles
Clouds Overcast 3000 ft
Windchill 45 °F
Dew Point 40 °F
Humidity 83%
Rainfall 0.00 in
Snow Depth Not available.
6:51 AM 4:43 PM
Waxing Crescent, 39% visible
METAR KBFL 060754Z AUTO 00000KT 5SM HZ OVC030 08/03 A3003 RMK AO2 SLP169 T00780033 401560033

10-Day Weather Forecast

Almanac

Astronomy

Dec. 06, 2016 Rise Set
Actual Time
Civil Twilight
Nautical Twilight
Astronomical Twilight
Moon
Length of Visible Light
Length of Day
Tomorrow will be .
, % of the Moon is Illuminated

Today's Extremes

State Highs State Lows

Community

WunderPhotos

Upload Photos

1,955,930 photos uploaded!

WunderBlog® & News

Nearby

Air Quality

  Air Quality AQ Index Pollutant
Not available.

Snow Depth

Station Depth Elevation

Earthquake Activity

City Distance Mag. Time & Date
Minimum magnitude displayed is 2.5.

Coastal Water Temperatures

Place Temperature

Stations

Nearby Weather Stations

Station Location Temp. Windchill Dew Point Humidity Wind Precip. Elev Updated Type
                   

Watches & Warnings

There are currently no watches in effect.